sensor_id;sensor_type;location;lat;lon;timestamp;P1;durP1;ratioP1;P2;durP2;ratioP2
42196;SDS011;27866;48.146;17.098;2024-03-17T00:03:51;1.80;;;1.50;;
42196;SDS011;27866;48.146;17.098;2024-03-17T00:08:04;1.63;;;1.38;;
42196;SDS011;27866;48.146;17.098;2024-03-17T00:12:15;1.60;;;1.40;;
42196;SDS011;27866;48.146;17.098;2024-03-17T00:16:27;2.28;;;1.60;;
42196;SDS011;27866;48.146;17.098;2024-03-17T00:20:38;3.15;;;1.77;;
42196;SDS011;27866;48.146;17.098;2024-03-17T00:24:50;3.55;;;2.10;;
42196;SDS011;27866;48.146;17.098;2024-03-17T00:29:02;2.78;;;1.98;;
42196;SDS011;27866;48.146;17.098;2024-03-17T00:33:13;3.42;;;2.00;;
42196;SDS011;27866;48.146;17.098;2024-03-17T00:37:25;2.63;;;2.15;;
42196;SDS011;27866;48.146;17.098;2024-03-17T00:41:37;2.88;;;2.10;;
42196;SDS011;27866;48.146;17.098;2024-03-17T00:45:52;3.30;;;2.40;;
42196;SDS011;27866;48.146;17.098;2024-03-17T00:50:04;4.07;;;2.50;;
42196;SDS011;27866;48.146;17.098;2024-03-17T00:54:17;3.47;;;2.47;;
42196;SDS011;27866;48.146;17.098;2024-03-17T00:58:29;5.68;;;3.20;;
42196;SDS011;27866;48.146;17.098;2024-03-17T01:02:40;3.22;;;2.30;;
42196;SDS011;27866;48.146;17.098;2024-03-17T01:06:52;2.90;;;2.20;;
42196;SDS011;27866;48.146;17.098;2024-03-17T01:11:03;4.28;;;2.55;;
42196;SDS011;27866;48.146;17.098;2024-03-17T01:15:18;3.28;;;2.78;;
42196;SDS011;27866;48.146;17.098;2024-03-17T01:19:30;3.13;;;2.50;;
42196;SDS011;27866;48.146;17.098;2024-03-17T01:23:42;3.88;;;3.13;;
42196;SDS011;27866;48.146;17.098;2024-03-17T01:27:54;4.60;;;2.90;;
42196;SDS011;27866;48.146;17.098;2024-03-17T01:32:06;4.55;;;3.42;;
42196;SDS011;27866;48.146;17.098;2024-03-17T01:36:17;5.13;;;3.28;;
42196;SDS011;27866;48.146;17.098;2024-03-17T01:40:29;6.13;;;3.40;;
42196;SDS011;27866;48.146;17.098;2024-03-17T01:44:41;5.15;;;2.78;;
42196;SDS011;27866;48.146;17.098;2024-03-17T01:48:52;5.10;;;3.08;;
42196;SDS011;27866;48.146;17.098;2024-03-17T01:53:05;5.20;;;2.85;;
42196;SDS011;27866;48.146;17.098;2024-03-17T01:57:19;7.22;;;3.20;;
42196;SDS011;27866;48.146;17.098;2024-03-17T02:01:30;4.72;;;2.63;;
42196;SDS011;27866;48.146;17.098;2024-03-17T02:05:42;5.03;;;2.92;;
42196;SDS011;27866;48.146;17.098;2024-03-17T02:09:55;4.90;;;2.80;;
42196;SDS011;27866;48.146;17.098;2024-03-17T02:14:07;5.20;;;3.25;;
42196;SDS011;27866;48.146;17.098;2024-03-17T02:18:19;3.90;;;2.58;;
42196;SDS011;27866;48.146;17.098;2024-03-17T02:22:30;7.07;;;3.00;;
42196;SDS011;27866;48.146;17.098;2024-03-17T02:26:42;4.95;;;2.97;;
42196;SDS011;27866;48.146;17.098;2024-03-17T02:30:54;5.75;;;2.88;;
42196;SDS011;27866;48.146;17.098;2024-03-17T02:35:06;5.63;;;2.70;;
42196;SDS011;27866;48.146;17.098;2024-03-17T02:39:17;3.78;;;2.65;;
42196;SDS011;27866;48.146;17.098;2024-03-17T02:43:47;4.55;;;2.92;;
42196;SDS011;27866;48.146;17.098;2024-03-17T02:47:59;5.35;;;3.10;;
42196;SDS011;27866;48.146;17.098;2024-03-17T02:52:10;7.50;;;3.35;;
42196;SDS011;27866;48.146;17.098;2024-03-17T02:56:22;5.50;;;3.17;;
42196;SDS011;27866;48.146;17.098;2024-03-17T03:00:34;5.20;;;2.63;;
42196;SDS011;27866;48.146;17.098;2024-03-17T03:04:46;6.07;;;2.22;;
42196;SDS011;27866;48.146;17.098;2024-03-17T03:08:58;4.20;;;2.83;;
42196;SDS011;27866;48.146;17.098;2024-03-17T03:13:10;7.03;;;2.80;;
42196;SDS011;27866;48.146;17.098;2024-03-17T03:17:21;5.70;;;3.15;;
42196;SDS011;27866;48.146;17.098;2024-03-17T03:21:34;6.45;;;2.90;;
42196;SDS011;27866;48.146;17.098;2024-03-17T03:25:46;5.60;;;2.83;;
42196;SDS011;27866;48.146;17.098;2024-03-17T03:29:58;8.57;;;2.92;;
42196;SDS011;27866;48.146;17.098;2024-03-17T03:34:10;6.78;;;2.97;;
42196;SDS011;27866;48.146;17.098;2024-03-17T03:38:22;4.70;;;2.58;;
42196;SDS011;27866;48.146;17.098;2024-03-17T03:42:34;4.78;;;2.70;;
42196;SDS011;27866;48.146;17.098;2024-03-17T03:46:45;9.00;;;2.90;;
42196;SDS011;27866;48.146;17.098;2024-03-17T03:50:57;5.80;;;2.83;;
42196;SDS011;27866;48.146;17.098;2024-03-17T03:55:09;6.32;;;2.60;;
42196;SDS011;27866;48.146;17.098;2024-03-17T03:59:20;4.82;;;2.53;;
42196;SDS011;27866;48.146;17.098;2024-03-17T04:03:32;5.68;;;2.42;;
42196;SDS011;27866;48.146;17.098;2024-03-17T04:07:45;6.45;;;2.67;;
42196;SDS011;27866;48.146;17.098;2024-03-17T04:11:57;6.72;;;2.50;;
42196;SDS011;27866;48.146;17.098;2024-03-17T04:16:09;6.57;;;2.40;;
42196;SDS011;27866;48.146;17.098;2024-03-17T04:20:20;7.38;;;2.63;;
42196;SDS011;27866;48.146;17.098;2024-03-17T04:24:32;4.38;;;2.95;;
42196;SDS011;27866;48.146;17.098;2024-03-17T04:28:43;5.53;;;2.72;;
42196;SDS011;27866;48.146;17.098;2024-03-17T04:32:55;7.75;;;2.78;;
42196;SDS011;27866;48.146;17.098;2024-03-17T04:37:07;8.85;;;2.35;;
42196;SDS011;27866;48.146;17.098;2024-03-17T04:41:18;4.55;;;2.63;;
42196;SDS011;27866;48.146;17.098;2024-03-17T04:45:30;6.28;;;2.47;;
42196;SDS011;27866;48.146;17.098;2024-03-17T04:49:42;6.93;;;2.67;;
42196;SDS011;27866;48.146;17.098;2024-03-17T04:53:54;6.00;;;2.50;;
42196;SDS011;27866;48.146;17.098;2024-03-17T04:58:05;7.90;;;2.60;;
42196;SDS011;27866;48.146;17.098;2024-03-17T05:02:17;6.55;;;2.58;;
42196;SDS011;27866;48.146;17.098;2024-03-17T05:06:28;4.65;;;2.50;;
42196;SDS011;27866;48.146;17.098;2024-03-17T05:10:40;3.88;;;2.60;;
42196;SDS011;27866;48.146;17.098;2024-03-17T05:14:52;5.85;;;2.67;;
42196;SDS011;27866;48.146;17.098;2024-03-17T05:19:03;5.95;;;2.45;;
42196;SDS011;27866;48.146;17.098;2024-03-17T05:23:15;4.85;;;2.50;;
42196;SDS011;27866;48.146;17.098;2024-03-17T05:27:27;9.27;;;2.70;;
42196;SDS011;27866;48.146;17.098;2024-03-17T05:31:38;5.15;;;2.38;;
42196;SDS011;27866;48.146;17.098;2024-03-17T05:40:03;9.30;;;2.50;;
42196;SDS011;27866;48.146;17.098;2024-03-17T05:44:15;9.45;;;2.50;;
42196;SDS011;27866;48.146;17.098;2024-03-17T05:48:27;5.65;;;2.45;;
42196;SDS011;27866;48.146;17.098;2024-03-17T05:52:39;7.60;;;2.70;;
42196;SDS011;27866;48.146;17.098;2024-03-17T05:56:50;7.82;;;2.30;;
42196;SDS011;27866;48.146;17.098;2024-03-17T06:01:02;5.20;;;2.33;;
42196;SDS011;27866;48.146;17.098;2024-03-17T06:05:14;6.38;;;2.53;;
42196;SDS011;27866;48.146;17.098;2024-03-17T06:09:25;7.35;;;2.60;;
42196;SDS011;27866;48.146;17.098;2024-03-17T06:13:37;4.97;;;2.58;;
42196;SDS011;27866;48.146;17.098;2024-03-17T06:17:51;4.43;;;2.20;;
42196;SDS011;27866;48.146;17.098;2024-03-17T06:26:15;3.85;;;2.10;;
42196;SDS011;27866;48.146;17.098;2024-03-17T06:30:27;4.30;;;2.33;;
42196;SDS011;27866;48.146;17.098;2024-03-17T06:34:38;7.28;;;2.40;;
42196;SDS011;27866;48.146;17.098;2024-03-17T06:38:50;5.25;;;2.30;;
42196;SDS011;27866;48.146;17.098;2024-03-17T06:43:01;6.32;;;2.35;;
42196;SDS011;27866;48.146;17.098;2024-03-17T06:47:13;5.90;;;2.40;;
42196;SDS011;27866;48.146;17.098;2024-03-17T06:51:25;6.68;;;2.50;;
42196;SDS011;27866;48.146;17.098;2024-03-17T06:55:36;6.00;;;2.60;;
42196;SDS011;27866;48.146;17.098;2024-03-17T06:59:48;6.22;;;2.03;;
42196;SDS011;27866;48.146;17.098;2024-03-17T07:03:59;5.40;;;2.22;;
42196;SDS011;27866;48.146;17.098;2024-03-17T07:08:11;6.70;;;2.75;;
42196;SDS011;27866;48.146;17.098;2024-03-17T07:12:24;6.70;;;2.40;;
42196;SDS011;27866;48.146;17.098;2024-03-17T07:16:36;5.63;;;2.85;;
42196;SDS011;27866;48.146;17.098;2024-03-17T07:20:47;7.60;;;2.47;;
42196;SDS011;27866;48.146;17.098;2024-03-17T07:24:59;5.18;;;2.47;;
42196;SDS011;27866;48.146;17.098;2024-03-17T07:29:11;5.65;;;2.65;;
42196;SDS011;27866;48.146;17.098;2024-03-17T07:33:23;6.03;;;2.45;;
42196;SDS011;27866;48.146;17.098;2024-03-17T07:37:35;5.47;;;2.65;;
42196;SDS011;27866;48.146;17.098;2024-03-17T07:41:46;7.85;;;2.65;;
42196;SDS011;27866;48.146;17.098;2024-03-17T07:46:01;7.32;;;2.53;;
42196;SDS011;27866;48.146;17.098;2024-03-17T07:50:14;7.38;;;2.80;;
42196;SDS011;27866;48.146;17.098;2024-03-17T07:54:25;3.53;;;2.40;;
42196;SDS011;27866;48.146;17.098;2024-03-17T07:58:38;6.68;;;2.90;;
42196;SDS011;27866;48.146;17.098;2024-03-17T08:02:50;4.88;;;2.40;;
42196;SDS011;27866;48.146;17.098;2024-03-17T08:07:02;5.20;;;2.60;;
42196;SDS011;27866;48.146;17.098;2024-03-17T08:11:14;6.35;;;2.67;;
42196;SDS011;27866;48.146;17.098;2024-03-17T08:15:26;5.72;;;2.30;;
42196;SDS011;27866;48.146;17.098;2024-03-17T08:19:37;7.63;;;2.83;;
42196;SDS011;27866;48.146;17.098;2024-03-17T08:23:49;9.50;;;3.00;;
42196;SDS011;27866;48.146;17.098;2024-03-17T08:28:01;5.68;;;2.60;;
42196;SDS011;27866;48.146;17.098;2024-03-17T08:32:13;6.30;;;2.25;;
42196;SDS011;27866;48.146;17.098;2024-03-17T08:36:25;5.28;;;2.35;;
42196;SDS011;27866;48.146;17.098;2024-03-17T08:40:38;6.35;;;2.22;;
42196;SDS011;27866;48.146;17.098;2024-03-17T08:44:51;7.50;;;2.33;;
42196;SDS011;27866;48.146;17.098;2024-03-17T08:49:03;5.68;;;2.30;;
42196;SDS011;27866;48.146;17.098;2024-03-17T08:53:15;6.13;;;2.50;;
42196;SDS011;27866;48.146;17.098;2024-03-17T08:57:27;7.05;;;2.65;;
42196;SDS011;27866;48.146;17.098;2024-03-17T09:01:38;6.55;;;2.45;;
42196;SDS011;27866;48.146;17.098;2024-03-17T09:05:50;5.07;;;2.42;;
42196;SDS011;27866;48.146;17.098;2024-03-17T09:10:05;4.90;;;2.30;;
42196;SDS011;27866;48.146;17.098;2024-03-17T09:14:17;5.97;;;2.35;;
42196;SDS011;27866;48.146;17.098;2024-03-17T09:18:28;4.38;;;2.08;;
42196;SDS011;27866;48.146;17.098;2024-03-17T09:22:41;3.65;;;1.88;;
42196;SDS011;27866;48.146;17.098;2024-03-17T09:26:53;5.95;;;2.35;;
42196;SDS011;27866;48.146;17.098;2024-03-17T09:31:04;4.55;;;2.08;;
42196;SDS011;27866;48.146;17.098;2024-03-17T09:35:17;7.20;;;2.38;;
42196;SDS011;27866;48.146;17.098;2024-03-17T09:39:29;3.92;;;2.10;;
42196;SDS011;27866;48.146;17.098;2024-03-17T09:43:40;4.68;;;2.25;;
42196;SDS011;27866;48.146;17.098;2024-03-17T09:47:52;5.82;;;2.40;;
42196;SDS011;27866;48.146;17.098;2024-03-17T09:52:04;6.50;;;2.85;;
42196;SDS011;27866;48.146;17.098;2024-03-17T09:56:21;6.85;;;2.65;;
42196;SDS011;27866;48.146;17.098;2024-03-17T10:00:33;5.85;;;3.08;;
42196;SDS011;27866;48.146;17.098;2024-03-17T10:04:45;6.28;;;2.60;;
42196;SDS011;27866;48.146;17.098;2024-03-17T10:08:58;4.95;;;2.20;;
42196;SDS011;27866;48.146;17.098;2024-03-17T10:13:14;4.85;;;2.22;;
42196;SDS011;27866;48.146;17.098;2024-03-17T10:17:29;4.28;;;2.47;;
42196;SDS011;27866;48.146;17.098;2024-03-17T10:21:43;3.70;;;2.50;;
42196;SDS011;27866;48.146;17.098;2024-03-17T10:25:59;7.78;;;2.42;;
42196;SDS011;27866;48.146;17.098;2024-03-17T10:30:14;5.78;;;2.60;;
42196;SDS011;27866;48.146;17.098;2024-03-17T10:34:32;6.20;;;2.20;;
42196;SDS011;27866;48.146;17.098;2024-03-17T10:38:52;5.95;;;2.05;;
42196;SDS011;27866;48.146;17.098;2024-03-17T10:43:05;3.83;;;2.35;;
42196;SDS011;27866;48.146;17.098;2024-03-17T10:47:25;4.65;;;2.30;;
42196;SDS011;27866;48.146;17.098;2024-03-17T10:51:37;4.45;;;2.10;;
42196;SDS011;27866;48.146;17.098;2024-03-17T10:55:49;6.30;;;2.42;;
42196;SDS011;27866;48.146;17.098;2024-03-17T11:00:02;5.05;;;2.22;;
42196;SDS011;27866;48.146;17.098;2024-03-17T11:04:15;4.40;;;1.60;;
42196;SDS011;27866;48.146;17.098;2024-03-17T11:08:28;4.50;;;2.10;;
42196;SDS011;27866;48.146;17.098;2024-03-17T11:12:41;6.43;;;2.40;;
42196;SDS011;27866;48.146;17.098;2024-03-17T11:17:16;3.80;;;2.10;;
42196;SDS011;27866;48.146;17.098;2024-03-17T11:21:28;4.70;;;1.80;;
42196;SDS011;27866;48.146;17.098;2024-03-17T11:25:40;5.57;;;1.95;;
42196;SDS011;27866;48.146;17.098;2024-03-17T11:29:51;3.80;;;2.15;;
42196;SDS011;27866;48.146;17.098;2024-03-17T11:34:03;4.43;;;2.15;;
42196;SDS011;27866;48.146;17.098;2024-03-17T11:43:08;3.95;;;1.85;;
42196;SDS011;27866;48.146;17.098;2024-03-17T11:47:34;3.13;;;1.50;;
42196;SDS011;27866;48.146;17.098;2024-03-17T11:51:48;3.90;;;1.75;;
42196;SDS011;27866;48.146;17.098;2024-03-17T11:56:00;3.92;;;2.10;;
42196;SDS011;27866;48.146;17.098;2024-03-17T12:00:19;2.88;;;2.00;;
42196;SDS011;27866;48.146;17.098;2024-03-17T12:04:38;3.47;;;1.83;;
42196;SDS011;27866;48.146;17.098;2024-03-17T12:08:50;4.60;;;1.80;;
42196;SDS011;27866;48.146;17.098;2024-03-17T12:13:02;3.15;;;2.00;;
42196;SDS011;27866;48.146;17.098;2024-03-17T12:17:15;2.87;;;2.03;;
42196;SDS011;27866;48.146;17.098;2024-03-17T12:21:32;3.22;;;1.77;;
42196;SDS011;27866;48.146;17.098;2024-03-17T12:25:46;3.85;;;2.00;;
42196;SDS011;27866;48.146;17.098;2024-03-17T12:29:58;3.42;;;2.08;;
42196;SDS011;27866;48.146;17.098;2024-03-17T12:34:10;4.82;;;2.00;;
42196;SDS011;27866;48.146;17.098;2024-03-17T12:38:22;3.13;;;1.48;;
42196;SDS011;27866;48.146;17.098;2024-03-17T12:42:33;2.65;;;1.88;;
42196;SDS011;27866;48.146;17.098;2024-03-17T12:46:48;5.60;;;1.90;;
42196;SDS011;27866;48.146;17.098;2024-03-17T12:51:07;2.88;;;1.55;;
42196;SDS011;27866;48.146;17.098;2024-03-17T12:55:24;4.00;;;1.70;;
42196;SDS011;27866;48.146;17.098;2024-03-17T12:59:54;2.80;;;1.77;;
42196;SDS011;27866;48.146;17.098;2024-03-17T13:04:24;3.40;;;1.80;;
42196;SDS011;27866;48.146;17.098;2024-03-17T13:08:36;2.70;;;1.55;;
42196;SDS011;27866;48.146;17.098;2024-03-17T13:12:48;2.72;;;1.50;;
42196;SDS011;27866;48.146;17.098;2024-03-17T13:17:08;4.40;;;1.60;;
42196;SDS011;27866;48.146;17.098;2024-03-17T13:21:29;2.80;;;1.80;;
42196;SDS011;27866;48.146;17.098;2024-03-17T13:25:41;5.43;;;2.03;;
42196;SDS011;27866;48.146;17.098;2024-03-17T13:29:55;4.05;;;1.60;;
42196;SDS011;27866;48.146;17.098;2024-03-17T13:34:06;2.78;;;1.50;;
42196;SDS011;27866;48.146;17.098;2024-03-17T13:38:19;4.10;;;1.85;;
42196;SDS011;27866;48.146;17.098;2024-03-17T13:42:30;5.13;;;2.05;;
42196;SDS011;27866;48.146;17.098;2024-03-17T13:46:42;4.95;;;2.05;;
42196;SDS011;27866;48.146;17.098;2024-03-17T13:50:54;4.13;;;2.00;;
42196;SDS011;27866;48.146;17.098;2024-03-17T13:55:05;5.00;;;1.73;;
42196;SDS011;27866;48.146;17.098;2024-03-17T13:59:23;2.90;;;1.70;;
42196;SDS011;27866;48.146;17.098;2024-03-17T14:03:35;4.95;;;1.40;;
42196;SDS011;27866;48.146;17.098;2024-03-17T14:07:47;1.88;;;1.40;;
42196;SDS011;27866;48.146;17.098;2024-03-17T14:11:59;4.35;;;1.85;;
42196;SDS011;27866;48.146;17.098;2024-03-17T14:16:10;5.53;;;2.00;;
42196;SDS011;27866;48.146;17.098;2024-03-17T14:20:22;5.55;;;1.88;;
42196;SDS011;27866;48.146;17.098;2024-03-17T14:24:33;4.65;;;1.70;;
42196;SDS011;27866;48.146;17.098;2024-03-17T14:28:45;4.72;;;1.60;;
42196;SDS011;27866;48.146;17.098;2024-03-17T14:32:56;6.63;;;1.85;;
42196;SDS011;27866;48.146;17.098;2024-03-17T14:37:08;2.85;;;1.70;;
42196;SDS011;27866;48.146;17.098;2024-03-17T14:41:22;2.33;;;1.50;;
42196;SDS011;27866;48.146;17.098;2024-03-17T14:45:34;5.45;;;1.98;;
42196;SDS011;27866;48.146;17.098;2024-03-17T14:49:45;4.30;;;1.70;;
42196;SDS011;27866;48.146;17.098;2024-03-17T14:53:57;3.67;;;1.90;;
42196;SDS011;27866;48.146;17.098;2024-03-17T14:58:10;3.42;;;1.70;;
42196;SDS011;27866;48.146;17.098;2024-03-17T15:02:22;3.50;;;1.70;;
42196;SDS011;27866;48.146;17.098;2024-03-17T15:06:35;4.03;;;1.70;;
42196;SDS011;27866;48.146;17.098;2024-03-17T15:10:47;4.50;;;1.83;;
42196;SDS011;27866;48.146;17.098;2024-03-17T15:14:59;4.82;;;1.75;;
42196;SDS011;27866;48.146;17.098;2024-03-17T15:19:11;4.55;;;1.90;;
42196;SDS011;27866;48.146;17.098;2024-03-17T15:23:22;3.85;;;1.45;;
42196;SDS011;27866;48.146;17.098;2024-03-17T15:27:42;3.05;;;1.42;;
42196;SDS011;27866;48.146;17.098;2024-03-17T15:36:09;3.58;;;1.90;;
42196;SDS011;27866;48.146;17.098;2024-03-17T15:40:21;4.80;;;1.90;;
42196;SDS011;27866;48.146;17.098;2024-03-17T15:44:33;4.05;;;2.10;;
42196;SDS011;27866;48.146;17.098;2024-03-17T15:48:45;2.78;;;1.52;;
42196;SDS011;27866;48.146;17.098;2024-03-17T15:52:57;5.00;;;2.10;;
42196;SDS011;27866;48.146;17.098;2024-03-17T15:57:08;5.60;;;1.88;;
42196;SDS011;27866;48.146;17.098;2024-03-17T16:01:20;6.43;;;2.10;;
42196;SDS011;27866;48.146;17.098;2024-03-17T16:05:31;3.40;;;2.13;;
42196;SDS011;27866;48.146;17.098;2024-03-17T16:09:44;5.25;;;1.88;;
42196;SDS011;27866;48.146;17.098;2024-03-17T16:13:58;3.65;;;1.80;;
42196;SDS011;27866;48.146;17.098;2024-03-17T16:18:10;8.10;;;1.92;;
42196;SDS011;27866;48.146;17.098;2024-03-17T16:22:22;5.70;;;2.10;;
42196;SDS011;27866;48.146;17.098;2024-03-17T16:26:35;7.65;;;2.47;;
42196;SDS011;27866;48.146;17.098;2024-03-17T16:30:52;3.80;;;1.63;;
42196;SDS011;27866;48.146;17.098;2024-03-17T16:35:06;4.95;;;2.22;;
42196;SDS011;27866;48.146;17.098;2024-03-17T16:39:18;3.33;;;1.95;;
42196;SDS011;27866;48.146;17.098;2024-03-17T16:48:23;4.18;;;1.98;;
42196;SDS011;27866;48.146;17.098;2024-03-17T16:52:35;5.72;;;2.00;;
42196;SDS011;27866;48.146;17.098;2024-03-17T16:56:47;4.25;;;2.00;;
42196;SDS011;27866;48.146;17.098;2024-03-17T17:00:59;5.10;;;2.20;;
42196;SDS011;27866;48.146;17.098;2024-03-17T17:05:11;6.22;;;2.38;;
42196;SDS011;27866;48.146;17.098;2024-03-17T17:09:23;5.80;;;2.22;;
42196;SDS011;27866;48.146;17.098;2024-03-17T17:13:35;8.95;;;2.10;;
42196;SDS011;27866;48.146;17.098;2024-03-17T17:17:47;3.80;;;1.88;;
42196;SDS011;27866;48.146;17.098;2024-03-17T17:22:01;4.97;;;1.80;;
42196;SDS011;27866;48.146;17.098;2024-03-17T17:26:20;3.97;;;2.38;;
42196;SDS011;27866;48.146;17.098;2024-03-17T17:30:33;4.65;;;2.10;;
42196;SDS011;27866;48.146;17.098;2024-03-17T17:34:44;7.32;;;2.42;;
42196;SDS011;27866;48.146;17.098;2024-03-17T17:38:56;5.25;;;2.20;;
42196;SDS011;27866;48.146;17.098;2024-03-17T17:43:08;5.00;;;2.20;;
42196;SDS011;27866;48.146;17.098;2024-03-17T17:47:19;3.97;;;2.22;;
42196;SDS011;27866;48.146;17.098;2024-03-17T17:51:31;4.93;;;2.17;;
42196;SDS011;27866;48.146;17.098;2024-03-17T17:55:43;4.80;;;2.30;;
42196;SDS011;27866;48.146;17.098;2024-03-17T17:59:55;6.50;;;2.35;;
42196;SDS011;27866;48.146;17.098;2024-03-17T18:04:06;5.82;;;2.42;;
42196;SDS011;27866;48.146;17.098;2024-03-17T18:08:18;8.68;;;2.50;;
42196;SDS011;27866;48.146;17.098;2024-03-17T18:12:33;6.97;;;2.67;;
42196;SDS011;27866;48.146;17.098;2024-03-17T18:16:45;5.57;;;2.40;;
42196;SDS011;27866;48.146;17.098;2024-03-17T18:20:57;5.88;;;2.40;;
42196;SDS011;27866;48.146;17.098;2024-03-17T18:25:11;5.10;;;2.22;;
42196;SDS011;27866;48.146;17.098;2024-03-17T18:29:23;6.70;;;2.53;;
42196;SDS011;27866;48.146;17.098;2024-03-17T18:33:34;8.60;;;2.45;;
42196;SDS011;27866;48.146;17.098;2024-03-17T18:37:47;8.82;;;2.58;;
42196;SDS011;27866;48.146;17.098;2024-03-17T18:42:07;7.05;;;2.78;;
42196;SDS011;27866;48.146;17.098;2024-03-17T18:46:21;5.70;;;2.75;;
42196;SDS011;27866;48.146;17.098;2024-03-17T18:50:32;5.00;;;2.63;;
42196;SDS011;27866;48.146;17.098;2024-03-17T18:54:47;6.65;;;3.10;;
42196;SDS011;27866;48.146;17.098;2024-03-17T18:58:59;5.65;;;3.15;;
42196;SDS011;27866;48.146;17.098;2024-03-17T19:03:11;6.60;;;2.90;;
42196;SDS011;27866;48.146;17.098;2024-03-17T19:07:23;7.88;;;2.80;;
42196;SDS011;27866;48.146;17.098;2024-03-17T19:11:38;6.72;;;2.90;;
42196;SDS011;27866;48.146;17.098;2024-03-17T19:16:04;5.60;;;2.90;;
42196;SDS011;27866;48.146;17.098;2024-03-17T19:20:18;8.50;;;3.10;;
42196;SDS011;27866;48.146;17.098;2024-03-17T19:24:31;6.15;;;3.13;;
42196;SDS011;27866;48.146;17.098;2024-03-17T19:28:43;7.70;;;3.10;;
42196;SDS011;27866;48.146;17.098;2024-03-17T19:32:54;7.47;;;3.38;;
42196;SDS011;27866;48.146;17.098;2024-03-17T19:37:06;7.45;;;3.72;;
42196;SDS011;27866;48.146;17.098;2024-03-17T19:41:17;8.55;;;3.75;;
42196;SDS011;27866;48.146;17.098;2024-03-17T19:45:29;6.53;;;3.72;;
42196;SDS011;27866;48.146;17.098;2024-03-17T19:49:40;7.72;;;3.45;;
42196;SDS011;27866;48.146;17.098;2024-03-17T19:53:52;7.00;;;3.50;;
42196;SDS011;27866;48.146;17.098;2024-03-17T19:58:04;7.22;;;3.30;;
42196;SDS011;27866;48.146;17.098;2024-03-17T20:02:15;6.70;;;3.30;;
42196;SDS011;27866;48.146;17.098;2024-03-17T20:06:27;5.38;;;3.33;;
42196;SDS011;27866;48.146;17.098;2024-03-17T20:10:39;10.55;;;3.78;;
42196;SDS011;27866;48.146;17.098;2024-03-17T20:14:54;9.50;;;3.58;;
42196;SDS011;27866;48.146;17.098;2024-03-17T20:19:06;6.13;;;3.42;;
42196;SDS011;27866;48.146;17.098;2024-03-17T20:23:17;7.97;;;4.07;;
42196;SDS011;27866;48.146;17.098;2024-03-17T20:27:29;7.57;;;4.65;;
42196;SDS011;27866;48.146;17.098;2024-03-17T20:31:40;8.65;;;4.13;;
42196;SDS011;27866;48.146;17.098;2024-03-17T20:35:52;5.95;;;3.72;;
42196;SDS011;27866;48.146;17.098;2024-03-17T20:40:06;7.47;;;3.58;;
42196;SDS011;27866;48.146;17.098;2024-03-17T20:44:21;7.72;;;3.90;;
42196;SDS011;27866;48.146;17.098;2024-03-17T20:48:33;9.55;;;4.32;;
42196;SDS011;27866;48.146;17.098;2024-03-17T20:52:45;8.68;;;4.22;;
42196;SDS011;27866;48.146;17.098;2024-03-17T20:56:56;5.78;;;3.72;;
42196;SDS011;27866;48.146;17.098;2024-03-17T21:01:10;10.70;;;5.20;;
42196;SDS011;27866;48.146;17.098;2024-03-17T21:05:22;11.73;;;5.05;;
42196;SDS011;27866;48.146;17.098;2024-03-17T21:09:35;8.27;;;3.88;;
42196;SDS011;27866;48.146;17.098;2024-03-17T21:13:47;7.90;;;3.40;;
42196;SDS011;27866;48.146;17.098;2024-03-17T21:17:59;6.60;;;3.70;;
42196;SDS011;27866;48.146;17.098;2024-03-17T21:22:11;5.65;;;3.22;;
42196;SDS011;27866;48.146;17.098;2024-03-17T21:26:22;8.23;;;3.72;;
42196;SDS011;27866;48.146;17.098;2024-03-17T21:30:34;8.25;;;3.78;;
42196;SDS011;27866;48.146;17.098;2024-03-17T21:34:46;9.73;;;3.33;;
42196;SDS011;27866;48.146;17.098;2024-03-17T21:39:01;7.20;;;3.72;;
42196;SDS011;27866;48.146;17.098;2024-03-17T21:43:18;7.85;;;4.00;;
42196;SDS011;27866;48.146;17.098;2024-03-17T21:47:29;9.30;;;3.75;;
42196;SDS011;27866;48.146;17.098;2024-03-17T21:51:41;6.60;;;3.78;;
42196;SDS011;27866;48.146;17.098;2024-03-17T21:55:56;9.50;;;4.13;;
42196;SDS011;27866;48.146;17.098;2024-03-17T22:00:08;6.45;;;3.65;;
42196;SDS011;27866;48.146;17.098;2024-03-17T22:04:23;8.13;;;3.70;;
42196;SDS011;27866;48.146;17.098;2024-03-17T22:08:34;6.80;;;3.75;;
42196;SDS011;27866;48.146;17.098;2024-03-17T22:12:46;7.57;;;4.10;;
42196;SDS011;27866;48.146;17.098;2024-03-17T22:16:58;6.22;;;3.90;;
42196;SDS011;27866;48.146;17.098;2024-03-17T22:21:09;7.72;;;3.65;;
42196;SDS011;27866;48.146;17.098;2024-03-17T22:25:22;6.30;;;3.47;;
42196;SDS011;27866;48.146;17.098;2024-03-17T22:29:35;6.05;;;3.70;;
42196;SDS011;27866;48.146;17.098;2024-03-17T22:33:46;9.85;;;3.97;;
42196;SDS011;27866;48.146;17.098;2024-03-17T22:38:00;6.60;;;4.20;;
42196;SDS011;27866;48.146;17.098;2024-03-17T22:42:11;7.93;;;3.88;;
42196;SDS011;27866;48.146;17.098;2024-03-17T22:46:23;13.73;;;7.05;;
42196;SDS011;27866;48.146;17.098;2024-03-17T22:50:35;8.07;;;5.18;;
42196;SDS011;27866;48.146;17.098;2024-03-17T22:54:46;6.63;;;4.00;;
42196;SDS011;27866;48.146;17.098;2024-03-17T22:58:58;10.25;;;4.40;;
42196;SDS011;27866;48.146;17.098;2024-03-17T23:03:10;6.97;;;4.00;;
42196;SDS011;27866;48.146;17.098;2024-03-17T23:07:21;11.35;;;4.30;;
42196;SDS011;27866;48.146;17.098;2024-03-17T23:11:33;6.25;;;3.65;;
42196;SDS011;27866;48.146;17.098;2024-03-17T23:15:45;7.72;;;4.28;;
42196;SDS011;27866;48.146;17.098;2024-03-17T23:19:56;7.45;;;4.38;;
42196;SDS011;27866;48.146;17.098;2024-03-17T23:24:08;7.40;;;4.18;;
42196;SDS011;27866;48.146;17.098;2024-03-17T23:28:19;8.25;;;4.22;;
42196;SDS011;27866;48.146;17.098;2024-03-17T23:32:31;12.23;;;4.32;;
42196;SDS011;27866;48.146;17.098;2024-03-17T23:36:42;7.78;;;4.03;;
42196;SDS011;27866;48.146;17.098;2024-03-17T23:40:54;9.05;;;4.47;;
42196;SDS011;27866;48.146;17.098;2024-03-17T23:45:06;7.18;;;4.50;;
42196;SDS011;27866;48.146;17.098;2024-03-17T23:49:19;12.05;;;4.45;;
42196;SDS011;27866;48.146;17.098;2024-03-17T23:53:30;10.13;;;4.68;;
42196;SDS011;27866;48.146;17.098;2024-03-17T23:57:42;7.93;;;4.60;;
